Terminal Aerodrome Forecast
Issued by NWS

Home | Current Version | Previous Version | Text Only | Print | Product List | Glossary On
Versions: 1 2 3 4 5 6 7 8 9 10 11 12 13 14 15 16 17 18 19 20 21 22 23 24 25 26 27 28 29 30
000
FTUS41 KPBZ 280500
TAFMGW
TAF
KMGW 280528Z 2806/2906 26005KT P6SM -SHSN OVC015
     FM281200 28005KT P6SM OVC025
     FM281500 26005KT P6SM BKN035
     FM290000 18003KT P6SM BKN050=

USA.gov is the U.S. government's official web portal to all federal, state and local government web resources and services.